sensor_id;sensor_type;location;lat;lon;timestamp;pressure;altitude;pressure_sealevel;temperature;humidity
40285;BME280;25997;50.214;19.354;2023-05-12T00:02:22;97930.34;;;12.13;33.49
40285;BME280;25997;50.214;19.354;2023-05-12T00:05:26;97932.00;;;12.10;33.63
40285;BME280;25997;50.214;19.354;2023-05-12T00:08:29;97939.88;;;12.08;33.41
40285;BME280;25997;50.214;19.354;2023-05-12T00:11:32;97948.72;;;12.10;33.34
40285;BME280;25997;50.214;19.354;2023-05-12T00:14:35;97947.72;;;12.07;33.42
40285;BME280;25997;50.214;19.354;2023-05-12T00:17:37;97944.09;;;11.99;33.51
40285;BME280;25997;50.214;19.354;2023-05-12T00:20:41;97948.19;;;11.85;33.85
40285;BME280;25997;50.214;19.354;2023-05-12T00:23:44;97946.22;;;11.73;34.06
40285;BME280;25997;50.214;19.354;2023-05-12T00:26:47;97940.00;;;11.70;34.17
40285;BME280;25997;50.214;19.354;2023-05-12T00:29:49;97938.19;;;11.67;33.96
40285;BME280;25997;50.214;19.354;2023-05-12T00:32:51;97932.75;;;11.58;34.38
40285;BME280;25997;50.214;19.354;2023-05-12T00:35:55;97938.72;;;11.50;34.59
40285;BME280;25997;50.214;19.354;2023-05-12T00:39:00;97942.97;;;11.44;34.80
40285;BME280;25997;50.214;19.354;2023-05-12T00:42:04;97934.25;;;11.45;34.43
40285;BME280;25997;50.214;19.354;2023-05-12T00:45:07;97944.75;;;11.45;34.66
40285;BME280;25997;50.214;19.354;2023-05-12T00:48:10;97938.59;;;11.43;34.71
40285;BME280;25997;50.214;19.354;2023-05-12T00:51:15;97941.97;;;11.38;35.05
40285;BME280;25997;50.214;19.354;2023-05-12T00:54:17;97941.00;;;11.33;34.96
40285;BME280;25997;50.214;19.354;2023-05-12T00:57:21;97937.28;;;11.23;35.33
40285;BME280;25997;50.214;19.354;2023-05-12T01:00:24;97935.44;;;11.19;35.27
40285;BME280;25997;50.214;19.354;2023-05-12T01:03:26;97940.59;;;11.15;35.60
40285;BME280;25997;50.214;19.354;2023-05-12T01:06:33;97942.19;;;11.10;35.82
40285;BME280;25997;50.214;19.354;2023-05-12T01:09:39;97943.06;;;11.09;35.59
40285;BME280;25997;50.214;19.354;2023-05-12T01:12:43;97942.88;;;11.01;35.90
40285;BME280;25997;50.214;19.354;2023-05-12T01:15:47;97939.97;;;10.89;36.22
40285;BME280;25997;50.214;19.354;2023-05-12T01:18:51;97943.34;;;10.84;36.27
40285;BME280;25997;50.214;19.354;2023-05-12T01:21:58;97941.50;;;10.80;36.40
40285;BME280;25997;50.214;19.354;2023-05-12T01:25:03;97947.38;;;10.69;36.54
40285;BME280;25997;50.214;19.354;2023-05-12T01:28:08;97944.69;;;10.66;36.56
40285;BME280;25997;50.214;19.354;2023-05-12T01:31:12;97952.50;;;10.63;36.48
40285;BME280;25997;50.214;19.354;2023-05-12T01:34:15;97949.88;;;10.63;36.21
40285;BME280;25997;50.214;19.354;2023-05-12T01:37:21;97954.19;;;10.61;36.28
40285;BME280;25997;50.214;19.354;2023-05-12T01:40:27;97960.25;;;10.59;36.51
40285;BME280;25997;50.214;19.354;2023-05-12T01:43:32;97949.66;;;10.56;36.91
40285;BME280;25997;50.214;19.354;2023-05-12T01:46:35;97954.75;;;10.48;36.86
40285;BME280;25997;50.214;19.354;2023-05-12T01:49:38;97957.16;;;10.41;36.79
40285;BME280;25997;50.214;19.354;2023-05-12T01:52:46;97953.41;;;10.31;37.29
40285;BME280;25997;50.214;19.354;2023-05-12T01:55:50;97948.00;;;10.24;37.40
40285;BME280;25997;50.214;19.354;2023-05-12T01:58:55;97955.78;;;10.21;37.11
40285;BME280;25997;50.214;19.354;2023-05-12T02:01:58;97952.09;;;10.14;37.39
40285;BME280;25997;50.214;19.354;2023-05-12T02:05:05;97958.00;;;10.06;37.73
40285;BME280;25997;50.214;19.354;2023-05-12T02:08:08;97953.53;;;10.03;37.72
40285;BME280;25997;50.214;19.354;2023-05-12T02:11:10;97956.06;;;10.00;37.93
40285;BME280;25997;50.214;19.354;2023-05-12T02:14:14;97957.09;;;10.04;37.71
40285;BME280;25997;50.214;19.354;2023-05-12T02:17:17;97950.91;;;10.03;37.60
40285;BME280;25997;50.214;19.354;2023-05-12T02:20:20;97960.31;;;9.95;37.71
40285;BME280;25997;50.214;19.354;2023-05-12T02:23:23;97947.78;;;9.85;38.15
40285;BME280;25997;50.214;19.354;2023-05-12T02:26:26;97959.84;;;9.78;38.03
40285;BME280;25997;50.214;19.354;2023-05-12T02:29:30;97959.81;;;9.77;38.27
40285;BME280;25997;50.214;19.354;2023-05-12T02:32:33;97958.00;;;9.74;38.24
40285;BME280;25997;50.214;19.354;2023-05-12T02:35:35;97958.69;;;9.69;38.13
40285;BME280;25997;50.214;19.354;2023-05-12T02:38:38;97961.13;;;9.61;38.18
40285;BME280;25997;50.214;19.354;2023-05-12T02:41:41;97959.19;;;9.56;38.10
40285;BME280;25997;50.214;19.354;2023-05-12T02:44:46;97964.28;;;9.50;38.41
40285;BME280;25997;50.214;19.354;2023-05-12T02:47:48;97959.78;;;9.46;38.45
40285;BME280;25997;50.214;19.354;2023-05-12T02:50:51;97963.09;;;9.40;38.53
40285;BME280;25997;50.214;19.354;2023-05-12T02:53:53;97961.91;;;9.29;38.47
40285;BME280;25997;50.214;19.354;2023-05-12T02:56:56;97955.31;;;9.13;38.88
40285;BME280;25997;50.214;19.354;2023-05-12T03:00:02;97954.97;;;9.01;39.25
40285;BME280;25997;50.214;19.354;2023-05-12T03:03:08;97960.50;;;8.84;39.35
40285;BME280;25997;50.214;19.354;2023-05-12T03:06:11;97956.94;;;8.82;39.33
40285;BME280;25997;50.214;19.354;2023-05-12T03:09:13;97957.94;;;8.87;39.47
40285;BME280;25997;50.214;19.354;2023-05-12T03:12:16;97954.56;;;8.89;39.40
40285;BME280;25997;50.214;19.354;2023-05-12T03:15:20;97952.09;;;8.94;39.45
40285;BME280;25997;50.214;19.354;2023-05-12T03:18:22;97951.28;;;8.95;39.34
40285;BME280;25997;50.214;19.354;2023-05-12T03:21:25;97951.31;;;8.96;39.58
40285;BME280;25997;50.214;19.354;2023-05-12T03:24:28;97953.88;;;8.95;39.63
40285;BME280;25997;50.214;19.354;2023-05-12T03:27:32;97953.88;;;8.95;39.66
40285;BME280;25997;50.214;19.354;2023-05-12T03:30:36;97951.41;;;8.99;39.64
40285;BME280;25997;50.214;19.354;2023-05-12T03:33:39;97952.34;;;9.01;39.60
40285;BME280;25997;50.214;19.354;2023-05-12T03:36:41;97954.97;;;9.01;39.84
40285;BME280;25997;50.214;19.354;2023-05-12T03:39:44;97961.13;;;9.03;39.80
40285;BME280;25997;50.214;19.354;2023-05-12T03:42:47;97960.16;;;9.00;40.16
40285;BME280;25997;50.214;19.354;2023-05-12T03:45:53;97961.09;;;9.02;40.25
40285;BME280;25997;50.214;19.354;2023-05-12T03:48:56;97955.00;;;9.03;40.23
40285;BME280;25997;50.214;19.354;2023-05-12T03:51:59;97960.38;;;9.07;40.03
40285;BME280;25997;50.214;19.354;2023-05-12T03:55:01;97959.63;;;9.11;40.42
40285;BME280;25997;50.214;19.354;2023-05-12T03:58:04;97959.56;;;9.08;40.47
40285;BME280;25997;50.214;19.354;2023-05-12T04:01:08;97957.94;;;9.13;40.48
40285;BME280;25997;50.214;19.354;2023-05-12T04:04:10;97956.28;;;9.15;40.55
40285;BME280;25997;50.214;19.354;2023-05-12T04:07:13;97956.38;;;9.20;40.46
40285;BME280;25997;50.214;19.354;2023-05-12T04:10:15;97960.84;;;9.22;40.55
40285;BME280;25997;50.214;19.354;2023-05-12T04:13:18;97960.09;;;9.26;40.50
40285;BME280;25997;50.214;19.354;2023-05-12T04:16:21;97961.22;;;9.35;40.57
40285;BME280;25997;50.214;19.354;2023-05-12T04:19:25;97972.84;;;9.44;40.56
40285;BME280;25997;50.214;19.354;2023-05-12T04:22:27;97973.13;;;9.53;40.33
40285;BME280;25997;50.214;19.354;2023-05-12T04:25:30;97978.78;;;9.68;40.59
40285;BME280;25997;50.214;19.354;2023-05-12T04:28:33;97976.50;;;9.80;40.62
40285;BME280;25997;50.214;19.354;2023-05-12T04:31:39;97981.09;;;9.89;40.56
40285;BME280;25997;50.214;19.354;2023-05-12T04:34:42;97974.47;;;10.01;40.32
40285;BME280;25997;50.214;19.354;2023-05-12T04:37:45;97979.28;;;10.16;40.28
40285;BME280;25997;50.214;19.354;2023-05-12T04:40:50;97979.59;;;10.28;40.10
40285;BME280;25997;50.214;19.354;2023-05-12T04:43:53;97977.38;;;10.43;39.98
40285;BME280;25997;50.214;19.354;2023-05-12T04:46:57;97986.53;;;10.60;40.04
40285;BME280;25997;50.214;19.354;2023-05-12T04:49:59;97983.41;;;10.75;39.85
40285;BME280;25997;50.214;19.354;2023-05-12T04:53:05;97986.50;;;10.93;39.71
40285;BME280;25997;50.214;19.354;2023-05-12T04:56:08;97990.44;;;11.10;39.62
40285;BME280;25997;50.214;19.354;2023-05-12T04:59:13;97995.94;;;11.22;39.52
40285;BME280;25997;50.214;19.354;2023-05-12T05:02:18;97994.44;;;11.33;39.50
40285;BME280;25997;50.214;19.354;2023-05-12T05:05:21;97999.16;;;11.48;39.52
40285;BME280;25997;50.214;19.354;2023-05-12T05:08:23;97998.53;;;11.60;39.36
40285;BME280;25997;50.214;19.354;2023-05-12T05:11:26;98001.47;;;11.73;39.09
40285;BME280;25997;50.214;19.354;2023-05-12T05:14:29;98007.84;;;11.86;38.95
40285;BME280;25997;50.214;19.354;2023-05-12T05:17:33;98009.94;;;12.02;38.84
40285;BME280;25997;50.214;19.354;2023-05-12T05:20:39;98006.66;;;12.13;38.87
40285;BME280;25997;50.214;19.354;2023-05-12T05:23:42;98001.72;;;12.29;38.85
40285;BME280;25997;50.214;19.354;2023-05-12T05:26:45;98006.38;;;12.45;38.91
40285;BME280;25997;50.214;19.354;2023-05-12T05:29:47;98004.88;;;12.59;38.96
40285;BME280;25997;50.214;19.354;2023-05-12T05:32:51;98008.66;;;12.74;38.57
40285;BME280;25997;50.214;19.354;2023-05-12T05:35:55;98007.19;;;12.91;38.64
40285;BME280;25997;50.214;19.354;2023-05-12T05:38:57;98011.00;;;13.07;38.48
40285;BME280;25997;50.214;19.354;2023-05-12T05:41:59;98007.81;;;13.28;38.40
40285;BME280;25997;50.214;19.354;2023-05-12T05:45:04;98015.91;;;13.41;38.22
40285;BME280;25997;50.214;19.354;2023-05-12T05:48:09;98017.84;;;13.54;38.16
40285;BME280;25997;50.214;19.354;2023-05-12T05:51:12;98016.38;;;13.76;37.90
40285;BME280;25997;50.214;19.354;2023-05-12T05:54:15;98021.84;;;13.88;37.60
40285;BME280;25997;50.214;19.354;2023-05-12T05:57:19;98024.69;;;14.02;37.35
40285;BME280;25997;50.214;19.354;2023-05-12T06:00:21;98015.06;;;14.08;37.38
40285;BME280;25997;50.214;19.354;2023-05-12T06:03:27;98023.13;;;14.19;37.21
40285;BME280;25997;50.214;19.354;2023-05-12T06:06:30;98027.63;;;14.29;37.05
40285;BME280;25997;50.214;19.354;2023-05-12T06:09:34;98026.88;;;14.39;36.79
40285;BME280;25997;50.214;19.354;2023-05-12T06:12:36;98027.00;;;14.53;36.52
40285;BME280;25997;50.214;19.354;2023-05-12T06:15:40;98030.59;;;14.62;36.35
40285;BME280;25997;50.214;19.354;2023-05-12T06:18:44;98029.91;;;14.80;36.41
40285;BME280;25997;50.214;19.354;2023-05-12T06:21:46;98033.53;;;14.86;36.13
40285;BME280;25997;50.214;19.354;2023-05-12T06:24:49;98035.34;;;14.92;36.06
40285;BME280;25997;50.214;19.354;2023-05-12T06:27:52;98034.56;;;15.03;36.01
40285;BME280;25997;50.214;19.354;2023-05-12T06:30:54;98029.38;;;15.17;35.73
40285;BME280;25997;50.214;19.354;2023-05-12T06:33:58;98025.91;;;15.27;35.76
40285;BME280;25997;50.214;19.354;2023-05-12T06:37:01;98040.06;;;15.34;35.47
40285;BME280;25997;50.214;19.354;2023-05-12T06:40:06;98034.03;;;15.53;35.38
40285;BME280;25997;50.214;19.354;2023-05-12T06:43:09;98031.53;;;15.75;35.20
40285;BME280;25997;50.214;19.354;2023-05-12T06:46:11;98037.81;;;15.88;34.69
40285;BME280;25997;50.214;19.354;2023-05-12T06:49:18;98036.94;;;15.97;34.58
40285;BME280;25997;50.214;19.354;2023-05-12T06:52:20;98029.91;;;16.05;34.87
40285;BME280;25997;50.214;19.354;2023-05-12T06:55:23;98033.47;;;16.10;34.30
40285;BME280;25997;50.214;19.354;2023-05-12T06:58:26;98032.59;;;16.12;34.97
40285;BME280;25997;50.214;19.354;2023-05-12T07:01:29;98042.31;;;16.18;34.03
40285;BME280;25997;50.214;19.354;2023-05-12T07:04:33;98043.22;;;16.17;34.08
40285;BME280;25997;50.214;19.354;2023-05-12T07:07:37;98033.56;;;16.34;33.81
40285;BME280;25997;50.214;19.354;2023-05-12T07:10:39;98030.97;;;16.44;34.02
40285;BME280;25997;50.214;19.354;2023-05-12T07:13:41;98031.00;;;16.51;34.05
40285;BME280;25997;50.214;19.354;2023-05-12T07:16:44;98038.06;;;16.56;33.67
40285;BME280;25997;50.214;19.354;2023-05-12T07:19:48;98037.19;;;16.60;33.48
40285;BME280;25997;50.214;19.354;2023-05-12T07:22:50;98037.22;;;16.74;33.79
40285;BME280;25997;50.214;19.354;2023-05-12T07:25:54;98036.34;;;16.84;33.76
40285;BME280;25997;50.214;19.354;2023-05-12T07:28:57;98039.03;;;16.93;33.05
40285;BME280;25997;50.214;19.354;2023-05-12T07:32:00;98037.25;;;17.10;33.39
40285;BME280;25997;50.214;19.354;2023-05-12T07:35:05;98042.56;;;17.14;32.94
40285;BME280;25997;50.214;19.354;2023-05-12T07:38:07;98038.13;;;17.18;32.74
40285;BME280;25997;50.214;19.354;2023-05-12T07:44:12;98037.25;;;17.40;32.73
40285;BME280;25997;50.214;19.354;2023-05-12T07:47:14;98042.56;;;17.39;32.38
40285;BME280;25997;50.214;19.354;2023-05-12T07:50:18;98045.22;;;17.49;32.80
40285;BME280;25997;50.214;19.354;2023-05-12T07:53:21;98045.22;;;17.64;32.44
40285;BME280;25997;50.214;19.354;2023-05-12T07:56:23;98038.09;;;17.72;32.62
40285;BME280;25997;50.214;19.354;2023-05-12T07:59:26;98040.72;;;17.86;32.29
40285;BME280;25997;50.214;19.354;2023-05-12T08:02:28;98038.94;;;17.83;32.63
40285;BME280;25997;50.214;19.354;2023-05-12T08:05:32;98030.06;;;17.92;32.74
40285;BME280;25997;50.214;19.354;2023-05-12T08:08:35;98033.56;;;18.05;32.24
40285;BME280;25997;50.214;19.354;2023-05-12T08:11:37;98052.13;;;18.23;32.53
40285;BME280;25997;50.214;19.354;2023-05-12T08:14:40;98046.78;;;18.27;32.28
40285;BME280;25997;50.214;19.354;2023-05-12T08:17:42;98047.59;;;18.43;32.16
40285;BME280;25997;50.214;19.354;2023-05-12T08:20:47;98051.13;;;18.45;32.07
40285;BME280;25997;50.214;19.354;2023-05-12T08:23:50;98056.47;;;18.46;32.01
40285;BME280;25997;50.214;19.354;2023-05-12T08:26:52;98057.31;;;18.47;32.28
40285;BME280;25997;50.214;19.354;2023-05-12T08:29:55;98058.13;;;18.58;32.47
40285;BME280;25997;50.214;19.354;2023-05-12T08:32:57;98050.97;;;18.78;32.21
40285;BME280;25997;50.214;19.354;2023-05-12T08:36:01;98048.16;;;18.99;32.66
40285;BME280;25997;50.214;19.354;2023-05-12T08:39:04;98055.97;;;19.20;32.33
40285;BME280;25997;50.214;19.354;2023-05-12T08:42:23;98045.09;;;19.49;32.35
40285;BME280;25997;50.214;19.354;2023-05-12T08:45:28;98051.25;;;19.57;31.92
40285;BME280;25997;50.214;19.354;2023-05-12T08:48:33;98068.00;;;19.67;31.65
40285;BME280;25997;50.214;19.354;2023-05-12T08:51:39;98052.91;;;19.69;30.58
40285;BME280;25997;50.214;19.354;2023-05-12T08:54:42;98060.81;;;19.76;31.17
40285;BME280;25997;50.214;19.354;2023-05-12T08:57:46;98057.22;;;19.80;31.15
40285;BME280;25997;50.214;19.354;2023-05-12T09:00:49;98061.47;;;19.98;31.04
40285;BME280;25997;50.214;19.354;2023-05-12T09:03:52;98063.94;;;20.19;30.98
40285;BME280;25997;50.214;19.354;2023-05-12T09:06:56;98062.03;;;20.30;31.02
40285;BME280;25997;50.214;19.354;2023-05-12T09:09:59;98065.69;;;20.22;31.01
40285;BME280;25997;50.214;19.354;2023-05-12T09:13:12;98062.91;;;20.31;30.27
40285;BME280;25997;50.214;19.354;2023-05-12T09:16:19;98059.38;;;20.29;30.20
40285;BME280;25997;50.214;19.354;2023-05-12T09:19:23;98056.06;;;20.09;30.46
40285;BME280;25997;50.214;19.354;2023-05-12T09:22:31;98069.44;;;20.05;30.68
40285;BME280;25997;50.214;19.354;2023-05-12T09:25:35;98064.13;;;19.99;30.65
40285;BME280;25997;50.214;19.354;2023-05-12T09:28:38;98070.34;;;20.03;30.31
40285;BME280;25997;50.214;19.354;2023-05-12T09:31:48;98060.56;;;20.03;29.34
40285;BME280;25997;50.214;19.354;2023-05-12T09:34:51;98062.22;;;20.12;30.57
40285;BME280;25997;50.214;19.354;2023-05-12T09:37:55;98070.75;;;20.44;30.95
40285;BME280;25997;50.214;19.354;2023-05-12T09:40:57;98055.88;;;20.91;30.57
40285;BME280;25997;50.214;19.354;2023-05-12T09:44:00;98061.56;;;21.26;31.40
40285;BME280;25997;50.214;19.354;2023-05-12T09:47:05;98068.38;;;21.97;29.96
40285;BME280;25997;50.214;19.354;2023-05-12T09:50:08;98057.69;;;22.40;30.12
40285;BME280;25997;50.214;19.354;2023-05-12T09:53:12;98063.00;;;22.82;28.51
40285;BME280;25997;50.214;19.354;2023-05-12T09:56:18;98058.34;;;23.30;29.06
40285;BME280;25997;50.214;19.354;2023-05-12T09:59:22;98067.63;;;23.52;28.31
40285;BME280;25997;50.214;19.354;2023-05-12T10:02:27;98070.06;;;23.61;27.67
40285;BME280;25997;50.214;19.354;2023-05-12T10:05:30;98060.19;;;23.97;27.29
40285;BME280;25997;50.214;19.354;2023-05-12T10:08:37;98060.09;;;24.32;26.25
40285;BME280;25997;50.214;19.354;2023-05-12T10:11:43;98068.63;;;24.77;26.79
40285;BME280;25997;50.214;19.354;2023-05-12T10:14:46;98064.06;;;24.18;26.41
40285;BME280;25997;50.214;19.354;2023-05-12T10:17:50;98068.66;;;23.82;26.62
40285;BME280;25997;50.214;19.354;2023-05-12T10:20:55;98066.72;;;23.87;25.93
40285;BME280;25997;50.214;19.354;2023-05-12T10:24:02;98060.75;;;23.78;26.09
40285;BME280;25997;50.214;19.354;2023-05-12T10:27:05;98068.25;;;23.96;26.42
40285;BME280;25997;50.214;19.354;2023-05-12T10:30:11;98068.06;;;24.03;26.08
40285;BME280;25997;50.214;19.354;2023-05-12T10:33:13;98063.53;;;24.68;25.83
40285;BME280;25997;50.214;19.354;2023-05-12T10:36:17;98068.84;;;24.70;25.23
40285;BME280;25997;50.214;19.354;2023-05-12T10:39:27;98065.59;;;24.88;24.70
40285;BME280;25997;50.214;19.354;2023-05-12T10:42:36;98061.50;;;25.33;24.81
40285;BME280;25997;50.214;19.354;2023-05-12T10:45:39;98067.22;;;25.77;25.15
40285;BME280;25997;50.214;19.354;2023-05-12T10:48:51;98069.81;;;25.80;22.92
40285;BME280;25997;50.214;19.354;2023-05-12T10:51:58;98066.44;;;24.90;23.41
40285;BME280;25997;50.214;19.354;2023-05-12T10:55:03;98065.88;;;23.85;24.31
40285;BME280;25997;50.214;19.354;2023-05-12T10:58:08;98062.16;;;23.91;24.67
40285;BME280;25997;50.214;19.354;2023-05-12T11:01:11;98076.03;;;24.39;24.67
40285;BME280;25997;50.214;19.354;2023-05-12T11:04:15;98070.28;;;24.52;24.61
40285;BME280;25997;50.214;19.354;2023-05-12T11:07:20;98078.94;;;24.92;24.57
40285;BME280;25997;50.214;19.354;2023-05-12T11:10:24;98074.66;;;25.15;23.92
40285;BME280;25997;50.214;19.354;2023-05-12T11:13:29;98071.59;;;25.25;23.91
40285;BME280;25997;50.214;19.354;2023-05-12T11:16:32;98069.91;;;25.50;23.82
40285;BME280;25997;50.214;19.354;2023-05-12T11:19:35;98067.63;;;25.11;23.81
40285;BME280;25997;50.214;19.354;2023-05-12T11:22:39;98077.63;;;24.46;23.50
40285;BME280;25997;50.214;19.354;2023-05-12T11:25:44;98062.44;;;24.12;23.32
40285;BME280;25997;50.214;19.354;2023-05-12T11:28:47;98071.25;;;23.85;23.75
40285;BME280;25997;50.214;19.354;2023-05-12T11:31:50;98066.44;;;23.27;23.96
40285;BME280;25997;50.214;19.354;2023-05-12T11:34:52;98070.69;;;22.59;24.26
40285;BME280;25997;50.214;19.354;2023-05-12T11:37:55;98074.63;;;21.94;24.42
40285;BME280;25997;50.214;19.354;2023-05-12T11:40:59;98076.09;;;21.63;24.77
40285;BME280;25997;50.214;19.354;2023-05-12T11:44:12;98071.25;;;21.31;25.15
40285;BME280;25997;50.214;19.354;2023-05-12T11:47:15;98072.09;;;21.36;25.38
40285;BME280;25997;50.214;19.354;2023-05-12T11:50:22;98069.31;;;21.91;24.67
40285;BME280;25997;50.214;19.354;2023-05-12T11:53:25;98075.38;;;22.47;25.13
40285;BME280;25997;50.214;19.354;2023-05-12T11:56:28;98075.41;;;22.45;25.21
40285;BME280;25997;50.214;19.354;2023-05-12T11:59:32;98079.72;;;22.52;25.11
40285;BME280;25997;50.214;19.354;2023-05-12T12:02:35;98079.69;;;22.54;24.55
40285;BME280;25997;50.214;19.354;2023-05-12T12:05:40;98058.91;;;23.05;24.53
40285;BME280;25997;50.214;19.354;2023-05-12T12:08:50;98079.00;;;23.62;24.05
40285;BME280;25997;50.214;19.354;2023-05-12T12:11:54;98077.56;;;23.83;23.98
40285;BME280;25997;50.214;19.354;2023-05-12T12:14:57;98070.75;;;23.34;23.47
40285;BME280;25997;50.214;19.354;2023-05-12T12:18:00;98069.72;;;23.74;23.82
40285;BME280;25997;50.214;19.354;2023-05-12T12:21:02;98062.78;;;24.00;23.07
40285;BME280;25997;50.214;19.354;2023-05-12T12:24:05;98069.53;;;23.11;23.84
40285;BME280;25997;50.214;19.354;2023-05-12T12:27:09;98065.00;;;22.74;23.40
40285;BME280;25997;50.214;19.354;2023-05-12T12:30:13;98062.78;;;22.93;24.35
40285;BME280;25997;50.214;19.354;2023-05-12T12:33:15;98068.41;;;22.40;23.95
40285;BME280;25997;50.214;19.354;2023-05-12T12:36:18;98067.44;;;23.23;23.83
40285;BME280;25997;50.214;19.354;2023-05-12T12:39:20;98061.13;;;24.27;23.40
40285;BME280;25997;50.214;19.354;2023-05-12T12:42:24;98067.88;;;24.11;21.87
40285;BME280;25997;50.214;19.354;2023-05-12T12:45:27;98073.38;;;24.06;22.80
40285;BME280;25997;50.214;19.354;2023-05-12T12:48:29;98080.16;;;24.81;22.31
40285;BME280;25997;50.214;19.354;2023-05-12T12:51:32;98067.31;;;25.20;21.77
40285;BME280;25997;50.214;19.354;2023-05-12T12:54:35;98073.28;;;25.57;20.97
40285;BME280;25997;50.214;19.354;2023-05-12T12:57:39;98058.38;;;24.90;21.40
40285;BME280;25997;50.214;19.354;2023-05-12T13:00:41;98072.41;;;24.41;22.07
40285;BME280;25997;50.214;19.354;2023-05-12T13:03:44;98069.34;;;23.55;22.24
40285;BME280;25997;50.214;19.354;2023-05-12T13:06:46;98074.16;;;22.63;23.16
40285;BME280;25997;50.214;19.354;2023-05-12T13:09:48;98064.47;;;23.35;23.26
40285;BME280;25997;50.214;19.354;2023-05-12T13:12:52;98073.84;;;24.53;22.68
40285;BME280;25997;50.214;19.354;2023-05-12T13:15:55;98062.91;;;23.96;21.63
40285;BME280;25997;50.214;19.354;2023-05-12T13:18:57;98068.78;;;24.73;22.89
40285;BME280;25997;50.214;19.354;2023-05-12T13:21:59;98067.69;;;24.78;22.61
40285;BME280;25997;50.214;19.354;2023-05-12T13:25:02;98065.03;;;24.48;22.77
40285;BME280;25997;50.214;19.354;2023-05-12T13:28:08;98065.59;;;24.28;22.70
40285;BME280;25997;50.214;19.354;2023-05-12T13:31:11;98065.31;;;24.06;22.59
40285;BME280;25997;50.214;19.354;2023-05-12T13:34:13;98058.78;;;23.47;23.16
40285;BME280;25997;50.214;19.354;2023-05-12T13:37:16;98052.25;;;22.85;23.55
40285;BME280;25997;50.214;19.354;2023-05-12T13:40:18;98060.38;;;22.81;23.72
40285;BME280;25997;50.214;19.354;2023-05-12T13:43:22;98042.97;;;22.60;23.81
40285;BME280;25997;50.214;19.354;2023-05-12T13:46:24;98056.31;;;21.73;24.28
40285;BME280;25997;50.214;19.354;2023-05-12T13:49:27;98049.88;;;21.33;24.38
40285;BME280;25997;50.214;19.354;2023-05-12T13:52:29;98048.44;;;21.11;24.94
40285;BME280;25997;50.214;19.354;2023-05-12T13:55:32;98047.50;;;21.68;24.93
40285;BME280;25997;50.214;19.354;2023-05-12T13:58:39;98055.50;;;22.17;24.32
40285;BME280;25997;50.214;19.354;2023-05-12T14:01:42;98052.94;;;22.09;24.38
40285;BME280;25997;50.214;19.354;2023-05-12T14:04:45;98047.06;;;21.40;24.64
40285;BME280;25997;50.214;19.354;2023-05-12T14:07:47;98036.13;;;21.02;24.38
40285;BME280;25997;50.214;19.354;2023-05-12T14:10:50;98037.47;;;20.72;24.93
40285;BME280;25997;50.214;19.354;2023-05-12T14:13:53;98028.00;;;20.47;25.07
40285;BME280;25997;50.214;19.354;2023-05-12T14:16:56;98032.81;;;21.90;24.65
40285;BME280;25997;50.214;19.354;2023-05-12T14:19:58;98038.91;;;23.21;23.60
40285;BME280;25997;50.214;19.354;2023-05-12T14:23:01;98047.22;;;23.45;23.42
40285;BME280;25997;50.214;19.354;2023-05-12T14:26:03;98050.78;;;23.81;23.22
40285;BME280;25997;50.214;19.354;2023-05-12T14:29:07;98055.38;;;24.42;22.53
40285;BME280;25997;50.214;19.354;2023-05-12T14:32:10;98057.88;;;24.77;22.08
40285;BME280;25997;50.214;19.354;2023-05-12T14:35:13;98055.63;;;24.31;22.56
40285;BME280;25997;50.214;19.354;2023-05-12T14:38:15;98051.47;;;24.52;22.10
40285;BME280;25997;50.214;19.354;2023-05-12T14:41:18;98056.94;;;23.86;22.16
40285;BME280;25997;50.214;19.354;2023-05-12T14:44:23;98057.19;;;23.04;22.56
40285;BME280;25997;50.214;19.354;2023-05-12T14:47:26;98045.59;;;22.20;22.54
40285;BME280;25997;50.214;19.354;2023-05-12T14:50:28;98057.38;;;21.63;23.39
40285;BME280;25997;50.214;19.354;2023-05-12T14:53:31;98061.38;;;21.38;23.29
40285;BME280;25997;50.214;19.354;2023-05-12T14:56:33;98043.97;;;21.13;23.28
40285;BME280;25997;50.214;19.354;2023-05-12T14:59:37;98054.66;;;21.13;23.32
40285;BME280;25997;50.214;19.354;2023-05-12T15:02:40;98051.16;;;21.08;23.67
40285;BME280;25997;50.214;19.354;2023-05-12T15:05:43;98043.88;;;21.69;23.63
40285;BME280;25997;50.214;19.354;2023-05-12T15:08:46;98049.91;;;22.28;22.72
40285;BME280;25997;50.214;19.354;2023-05-12T15:11:49;98056.91;;;22.76;22.70
40285;BME280;25997;50.214;19.354;2023-05-12T15:14:53;98049.91;;;23.45;22.25
40285;BME280;25997;50.214;19.354;2023-05-12T15:17:56;98058.09;;;23.75;21.56
40285;BME280;25997;50.214;19.354;2023-05-12T15:20:58;98054.16;;;23.19;21.58
40285;BME280;25997;50.214;19.354;2023-05-12T15:24:01;98055.72;;;23.29;21.59
40285;BME280;25997;50.214;19.354;2023-05-12T15:27:04;98058.22;;;23.35;21.38
40285;BME280;25997;50.214;19.354;2023-05-12T15:30:10;98057.06;;;23.46;20.88
40285;BME280;25997;50.214;19.354;2023-05-12T15:33:13;98052.66;;;23.42;21.25
40285;BME280;25997;50.214;19.354;2023-05-12T15:36:15;98066.19;;;23.73;21.43
40285;BME280;25997;50.214;19.354;2023-05-12T15:39:18;98062.03;;;23.95;21.52
40285;BME280;25997;50.214;19.354;2023-05-12T15:42:21;98065.53;;;24.29;21.04
40285;BME280;25997;50.214;19.354;2023-05-12T15:45:24;98055.88;;;24.55;21.02
40285;BME280;25997;50.214;19.354;2023-05-12T15:48:27;98059.75;;;24.74;20.93
40285;BME280;25997;50.214;19.354;2023-05-12T15:51:30;98055.72;;;23.98;20.50
40285;BME280;25997;50.214;19.354;2023-05-12T15:54:33;98039.69;;;22.87;20.73
40285;BME280;25997;50.214;19.354;2023-05-12T15:57:36;98066.13;;;22.63;21.55
40285;BME280;25997;50.214;19.354;2023-05-12T16:00:40;98059.22;;;22.08;21.76
40285;BME280;25997;50.214;19.354;2023-05-12T16:03:42;98063.72;;;21.58;22.00